createdAt,value
2018-08-18T00:00:14.582Z,3.55
2018-08-18T00:02:42.998Z,5.45
2018-08-18T00:05:12.382Z,6.08
2018-08-18T00:07:40.918Z,4.15
2018-08-18T00:10:10.094Z,3.33
2018-08-18T00:12:38.525Z,3.17
2018-08-18T00:15:09.411Z,3.58
2018-08-18T00:17:38.489Z,3.95
2018-08-18T00:20:09.659Z,4.25
2018-08-18T00:22:38.250Z,3.95
2018-08-18T00:25:06.861Z,3.45
2018-08-18T00:27:35.454Z,5.05
2018-08-18T00:30:09.694Z,3.37
2018-08-18T00:32:37.991Z,6.75
2018-08-18T00:35:07.674Z,5.05
2018-08-18T00:37:36.196Z,3.60
2018-08-18T00:40:05.790Z,3.37
2018-08-18T00:42:34.098Z,6.35
2018-08-18T00:45:09.125Z,5.22
2018-08-18T00:47:38.006Z,3.90
2018-08-18T00:50:06.639Z,4.15
2018-08-18T00:55:08.635Z,3.22
2018-08-18T00:57:36.930Z,3.70
2018-08-18T01:00:06.355Z,5.25
2018-08-18T01:02:34.711Z,7.47
2018-08-18T01:05:03.745Z,4.05
2018-08-18T01:07:32.718Z,4.50
2018-08-18T01:10:01.388Z,6.50
2018-08-18T01:12:29.718Z,4.05
2018-08-18T01:14:58.654Z,4.10
2018-08-18T01:17:27.534Z,5.53
2018-08-18T01:19:58.118Z,4.10
2018-08-18T01:22:26.673Z,6.70
2018-08-18T01:24:54.929Z,4.22
2018-08-18T01:27:23.657Z,4.45
2018-08-18T01:29:57.998Z,4.53
2018-08-18T01:32:26.285Z,4.17
2018-08-18T01:34:54.717Z,4.10
2018-08-18T01:37:23.734Z,4.83
2018-08-18T01:39:53.695Z,4.45
2018-08-18T01:42:22.178Z,5.33
2018-08-18T01:44:52.591Z,5.42
2018-08-18T01:47:21.182Z,4.22
2018-08-18T01:49:49.565Z,5.72
2018-08-18T01:52:22.761Z,5.50
2018-08-18T01:54:51.542Z,4.62
2018-08-18T01:57:20.701Z,4.10
2018-08-18T01:59:49.473Z,4.45
2018-08-18T02:02:24.637Z,6.87
2018-08-18T02:04:53.646Z,4.62
2018-08-18T02:07:27.218Z,5.33
2018-08-18T02:09:56.209Z,5.15
2018-08-18T02:12:24.825Z,6.08
2018-08-18T02:14:53.991Z,5.10
2018-08-18T02:17:29.818Z,4.70
2018-08-18T02:19:59.144Z,6.40
2018-08-18T02:22:28.718Z,4.45
2018-08-18T02:24:56.998Z,4.50
2018-08-18T02:27:25.734Z,5.03
2018-08-18T02:30:05.795Z,4.17
2018-08-18T02:32:36.555Z,5.53
2018-08-18T02:35:05.577Z,5.95
2018-08-18T02:37:33.958Z,5.83
2018-08-18T02:40:02.284Z,5.03
2018-08-18T02:42:30.544Z,5.37
2018-08-18T02:44:58.802Z,5.12
2018-08-18T02:47:27.281Z,5.03
2018-08-18T02:49:56.057Z,6.85
2018-08-18T02:52:25.361Z,4.87
2018-08-18T02:54:56.990Z,5.35
2018-08-18T02:57:26.107Z,5.22
2018-08-18T02:59:55.929Z,4.40
2018-08-18T03:02:24.189Z,5.00
2018-08-18T03:04:52.988Z,4.83
2018-08-18T03:07:21.962Z,4.85
2018-08-18T03:09:50.261Z,4.90
2018-08-18T03:12:19.114Z,5.03
2018-08-18T03:14:48.412Z,4.65
2018-08-18T03:17:17.625Z,5.05
2018-08-18T03:19:46.817Z,5.00
2018-08-18T03:22:15.829Z,5.20
2018-08-18T03:24:44.102Z,5.22
2018-08-18T03:27:12.634Z,4.80
2018-08-18T03:32:11.270Z,6.28
2018-08-18T03:34:39.530Z,5.42
2018-08-18T03:37:23.526Z,4.97
2018-08-18T03:39:51.833Z,6.33
2018-08-18T03:42:20.506Z,5.28
2018-08-18T03:44:54.843Z,4.50
2018-08-18T03:47:23.186Z,4.53
2018-08-18T03:49:51.465Z,5.12
2018-08-18T03:52:19.864Z,5.00
2018-08-18T03:54:48.675Z,4.65
2018-08-18T03:57:17.001Z,4.75
2018-08-18T03:59:45.885Z,4.62
2018-08-18T04:02:14.713Z,4.90
2018-08-18T04:04:43.563Z,5.97
2018-08-18T04:07:12.319Z,4.58
2018-08-18T04:09:40.570Z,4.70
2018-08-18T04:12:10.177Z,6.22
2018-08-18T04:14:41.114Z,4.67
2018-08-18T04:17:20.878Z,4.70
2018-08-18T04:19:49.811Z,4.47
2018-08-18T04:22:18.836Z,5.03
2018-08-18T04:24:48.510Z,5.35
2018-08-18T04:27:28.093Z,4.08
2018-08-18T04:29:56.425Z,4.50
2018-08-18T04:32:24.915Z,4.75
2018-08-18T04:34:53.174Z,4.35
2018-08-18T04:37:21.461Z,6.37
2018-08-18T04:39:49.772Z,4.40
2018-08-18T04:42:18.294Z,4.15
2018-08-18T04:44:46.612Z,4.50
2018-08-18T04:47:27.053Z,4.35
2018-08-18T04:49:55.323Z,4.20
2018-08-18T04:52:23.585Z,3.87
2018-08-18T04:54:52.249Z,4.10
2018-08-18T04:57:20.478Z,4.45
2018-08-18T04:59:49.003Z,4.30
2018-08-18T05:02:17.489Z,4.30
2018-08-18T05:04:46.289Z,3.70
2018-08-18T05:07:14.578Z,3.67
2018-08-18T05:09:42.882Z,3.60
2018-08-18T05:12:11.228Z,3.52
2018-08-18T05:14:40.417Z,4.25
2018-08-18T05:17:08.890Z,3.52
2018-08-18T05:19:38.079Z,3.45
2018-08-18T05:22:06.753Z,3.80
2018-08-18T05:24:35.169Z,4.62
2018-08-18T05:27:10.662Z,3.52
2018-08-18T05:29:39.367Z,3.87
2018-08-18T05:32:09.706Z,4.00
2018-08-18T05:34:38.102Z,3.98
2018-08-18T05:37:06.997Z,3.98
2018-08-18T05:39:35.285Z,3.83
2018-08-18T05:42:03.537Z,4.60
2018-08-18T05:44:31.829Z,3.92
2018-08-18T05:47:00.145Z,3.55
2018-08-18T05:49:28.500Z,4.10
2018-08-18T05:51:57.743Z,3.60
2018-08-18T05:54:27.051Z,4.08
2018-08-18T05:56:55.344Z,3.67
2018-08-18T05:59:24.001Z,5.17
2018-08-18T06:01:52.310Z,3.75
2018-08-18T06:04:22.057Z,3.58
2018-08-18T06:06:51.125Z,3.25
2018-08-18T06:09:20.469Z,5.30
2018-08-18T06:11:48.751Z,3.30
2018-08-18T06:14:17.707Z,3.60
2018-08-18T06:16:46.495Z,3.00
2018-08-18T06:19:15.347Z,6.70
2018-08-18T06:21:43.902Z,3.77
2018-08-18T06:24:12.179Z,3.02
2018-08-18T06:26:40.782Z,3.95
2018-08-18T06:29:09.034Z,3.87
2018-08-18T06:31:52.853Z,4.10
2018-08-18T06:34:21.287Z,3.70
2018-08-18T06:36:50.067Z,3.85
2018-08-18T06:39:18.321Z,2.92
2018-08-18T06:41:46.718Z,3.15
2018-08-18T06:44:16.808Z,3.20
2018-08-18T06:46:47.858Z,3.90
2018-08-18T06:49:16.121Z,2.98
2018-08-18T06:51:44.413Z,3.00
2018-08-18T06:54:13.333Z,2.83
2018-08-18T06:56:41.698Z,3.30
2018-08-18T06:59:10.642Z,3.92
2018-08-18T07:01:38.970Z,3.02
2018-08-18T07:04:09.715Z,2.55
2018-08-18T07:06:38.305Z,3.70
2018-08-18T07:09:07.195Z,3.40
2018-08-18T07:11:35.498Z,2.90
2018-08-18T07:14:04.093Z,2.87
2018-08-18T07:16:32.393Z,4.33
2018-08-18T07:19:01.448Z,2.83
2018-08-18T07:21:30.355Z,2.72
2018-08-18T07:23:58.625Z,2.90
2018-08-18T07:26:27.506Z,2.90
2018-08-18T07:28:56.003Z,2.67
2018-08-18T07:31:24.064Z,3.58
2018-08-18T07:33:52.572Z,2.77
2018-08-18T07:36:27.794Z,4.50
2018-08-18T07:38:56.517Z,2.83
2018-08-18T07:41:24.769Z,2.42
2018-08-18T07:43:53.043Z,2.80
2018-08-18T07:46:21.599Z,2.85
2018-08-18T07:48:49.804Z,2.42
2018-08-18T07:51:22.060Z,2.52
2018-08-18T07:53:50.849Z,2.72
2018-08-18T07:56:19.105Z,3.00
2018-08-18T07:58:47.386Z,2.60
2018-08-18T08:01:15.857Z,3.00
2018-08-18T08:03:44.654Z,2.47
2018-08-18T08:06:13.527Z,2.75
2018-08-18T08:08:47.945Z,2.50
2018-08-18T08:11:16.268Z,2.40
2018-08-18T08:13:45.149Z,2.33
2018-08-18T08:16:13.435Z,4.60
2018-08-18T08:18:42.222Z,2.62
2018-08-18T08:21:11.318Z,2.22
2018-08-18T08:23:39.646Z,2.33
2018-08-18T08:26:08.189Z,2.40
2018-08-18T08:28:36.457Z,2.02
2018-08-18T08:31:04.688Z,2.20
2018-08-18T08:33:35.757Z,2.25
2018-08-18T08:36:08.026Z,2.10
2018-08-18T08:38:48.135Z,1.95
2018-08-18T08:41:16.376Z,1.92
2018-08-18T08:43:45.231Z,4.37
2018-08-18T08:46:13.526Z,2.45
2018-08-18T08:48:41.818Z,3.17
2018-08-18T08:51:10.143Z,3.22
2018-08-18T08:53:38.985Z,2.60
2018-08-18T08:56:10.265Z,1.95
2018-08-18T08:58:42.755Z,2.20
2018-08-18T09:01:11.087Z,3.52
2018-08-18T09:03:39.486Z,2.60
2018-08-18T09:06:07.977Z,1.82
2018-08-18T09:08:36.291Z,3.83
2018-08-18T09:11:04.562Z,2.20
2018-08-18T09:13:33.858Z,2.20
2018-08-18T09:16:02.136Z,2.27
2018-08-18T09:18:31.457Z,2.12
2018-08-18T09:21:00.763Z,5.90
2018-08-18T09:23:33.286Z,2.42
2018-08-18T09:26:02.047Z,2.67
2018-08-18T09:28:30.661Z,2.33
2018-08-18T09:30:58.910Z,3.60
2018-08-18T09:33:27.973Z,2.95
2018-08-18T09:36:01.693Z,2.47
2018-08-18T09:38:30.466Z,2.55
2018-08-18T09:40:58.797Z,3.08
2018-08-18T09:43:27.311Z,2.60
2018-08-18T09:45:56.694Z,2.80
2018-08-18T09:48:25.650Z,2.72
2018-08-18T09:50:55.535Z,2.47
2018-08-18T09:53:24.335Z,2.92
2018-08-18T09:55:52.692Z,4.17
2018-08-18T09:58:20.954Z,3.75
2018-08-18T10:00:49.261Z,3.58
2018-08-18T10:03:17.553Z,2.10
2018-08-18T10:05:46.395Z,4.78
2018-08-18T10:08:14.711Z,3.42
2018-08-18T10:10:43.084Z,2.20
2018-08-18T10:13:11.464Z,2.40
2018-08-18T10:15:40.125Z,4.92
2018-08-18T10:18:09.710Z,2.62
2018-08-18T10:23:17.072Z,4.00
2018-08-18T10:25:52.698Z,5.80
2018-08-18T10:28:21.755Z,4.78
2018-08-18T10:30:49.993Z,1.72
2018-08-18T10:33:18.331Z,2.12
2018-08-18T10:35:46.770Z,3.25
2018-08-18T10:38:15.306Z,1.70
2018-08-18T10:40:43.601Z,5.50
2018-08-18T10:43:11.889Z,3.58
2018-08-18T10:45:40.679Z,2.00
2018-08-18T10:48:08.949Z,3.62
2018-08-18T10:51:46.786Z,3.15
2018-08-18T10:54:15.437Z,4.20
2018-08-18T10:56:43.738Z,2.02
2018-08-18T10:59:17.022Z,2.42
2018-08-18T11:01:59.638Z,5.15
2018-08-18T11:04:30.236Z,2.83
2018-08-18T11:06:58.534Z,3.83
2018-08-18T11:09:26.960Z,1.60
2018-08-18T11:11:55.277Z,3.02
2018-08-18T11:14:23.983Z,3.70
2018-08-18T11:16:52.246Z,2.70
2018-08-18T11:19:21.717Z,5.15
2018-08-18T11:22:00.586Z,2.80
2018-08-18T11:24:29.487Z,4.30
2018-08-18T11:26:57.760Z,5.45
2018-08-18T11:29:26.032Z,1.60
2018-08-18T11:31:54.332Z,7.50
2018-08-18T11:34:23.078Z,1.70
2018-08-18T11:37:02.970Z,1.72
2018-08-18T11:39:32.155Z,1.90
2018-08-18T11:42:00.621Z,2.70
2018-08-18T11:44:28.977Z,3.15
2018-08-18T11:46:57.343Z,2.92
2018-08-18T11:49:25.862Z,2.05
2018-08-18T11:51:55.341Z,4.75
2018-08-18T11:54:24.158Z,3.40
2018-08-18T11:56:53.777Z,1.95
2018-08-18T11:59:22.103Z,2.87
2018-08-18T12:01:52.223Z,2.33
2018-08-18T12:04:23.253Z,2.72
2018-08-18T12:06:58.495Z,1.80
2018-08-18T12:09:27.214Z,3.98
2018-08-18T12:11:55.499Z,2.00
2018-08-18T12:14:24.643Z,2.72
2018-08-18T12:16:53.407Z,2.10
2018-08-18T12:19:22.032Z,3.33
2018-08-18T12:21:51.038Z,2.02
2018-08-18T12:24:20.860Z,2.15
2018-08-18T12:27:01.168Z,5.03
2018-08-18T12:29:30.934Z,2.35
2018-08-18T12:31:59.466Z,3.02
2018-08-18T12:34:28.231Z,2.20
2018-08-18T12:36:56.764Z,3.75
2018-08-18T12:39:24.900Z,2.08
2018-08-18T12:41:53.185Z,4.17
2018-08-18T12:44:25.694Z,3.00
2018-08-18T12:46:54.086Z,2.60
2018-08-18T12:49:22.369Z,1.90
2018-08-18T12:51:50.753Z,2.00
2018-08-18T12:54:19.229Z,2.85
2018-08-18T12:56:47.508Z,2.00
2018-08-18T12:59:15.778Z,1.70
2018-08-18T13:01:48.205Z,2.00
2018-08-18T13:04:22.686Z,1.90
2018-08-18T13:06:52.005Z,5.72
2018-08-18T13:09:22.092Z,2.00
2018-08-18T13:11:51.944Z,3.00
2018-08-18T13:14:23.667Z,2.05
2018-08-18T13:16:52.406Z,3.92
2018-08-18T13:19:26.101Z,2.22
2018-08-18T13:21:54.981Z,3.52
2018-08-18T13:24:23.230Z,2.77
2018-08-18T13:26:51.577Z,3.60
2018-08-18T13:29:20.349Z,1.90
2018-08-18T13:31:49.257Z,2.83
2018-08-18T13:34:18.226Z,1.82
2018-08-18T13:36:47.112Z,2.40
2018-08-18T13:39:17.473Z,2.40
2018-08-18T13:41:46.485Z,3.25
2018-08-18T13:44:27.654Z,2.62
2018-08-18T13:46:55.970Z,2.85
2018-08-18T13:49:25.344Z,2.37
2018-08-18T13:51:53.650Z,2.27
2018-08-18T13:54:22.347Z,2.30
2018-08-18T13:56:50.818Z,2.62
2018-08-18T13:59:35.493Z,4.00
2018-08-18T14:02:04.055Z,4.28
2018-08-18T14:04:33.005Z,3.08
2018-08-18T14:07:01.359Z,7.45
2018-08-18T14:09:29.906Z,4.12
2018-08-18T14:12:03.639Z,4.37
2018-08-18T14:14:32.368Z,4.03
2018-08-18T14:17:01.062Z,3.00
2018-08-18T14:19:29.797Z,6.15
2018-08-18T14:22:04.004Z,3.12
2018-08-18T14:24:34.066Z,3.37
2018-08-18T14:27:03.454Z,3.75
2018-08-18T14:29:33.049Z,3.20
2018-08-18T14:32:02.385Z,3.67
2018-08-18T14:34:30.676Z,3.40
2018-08-18T14:37:04.228Z,3.20
2018-08-18T14:39:38.165Z,3.37
2018-08-18T14:42:07.072Z,4.78
2018-08-18T14:44:35.696Z,3.55
2018-08-18T14:47:04.104Z,3.35
2018-08-18T14:49:32.662Z,3.67
2018-08-18T14:52:02.884Z,3.70
2018-08-18T14:54:32.355Z,3.55
2018-08-18T14:57:01.806Z,4.55
2018-08-18T14:59:32.406Z,3.95
2018-08-18T15:02:01.641Z,3.00
2018-08-18T15:04:30.689Z,3.70
2018-08-18T15:06:58.966Z,4.50
2018-08-18T15:09:48.186Z,3.50
2018-08-18T15:12:16.847Z,5.00
2018-08-18T15:14:45.557Z,5.60
2018-08-18T15:17:14.261Z,4.45
2018-08-18T15:19:42.986Z,4.03
2018-08-18T15:22:12.638Z,5.55
2018-08-18T15:24:40.893Z,3.37
2018-08-18T15:27:09.270Z,3.65
2018-08-18T15:29:37.543Z,3.45
2018-08-18T15:32:06.321Z,3.35
2018-08-18T15:34:34.581Z,4.20
2018-08-18T15:37:02.906Z,3.80
2018-08-18T15:39:31.398Z,4.12
2018-08-18T15:42:00.732Z,3.02
2018-08-18T15:44:28.983Z,3.37
2018-08-18T15:46:57.558Z,3.40
2018-08-18T15:49:25.821Z,4.08
2018-08-18T15:51:54.438Z,4.17
2018-08-18T15:54:24.238Z,3.27
2018-08-18T15:56:52.524Z,3.12
2018-08-18T15:59:20.772Z,3.92
2018-08-18T16:01:49.046Z,3.77
2018-08-18T16:04:23.908Z,3.27
2018-08-18T16:06:52.817Z,3.17
2018-08-18T16:09:22.102Z,4.12
2018-08-18T16:11:51.686Z,3.17
2018-08-18T16:14:20.834Z,3.00
2018-08-18T16:17:00.730Z,3.08
2018-08-18T16:19:34.781Z,2.95
2018-08-18T16:22:03.921Z,3.27
2018-08-18T16:24:38.145Z,3.42
2018-08-18T16:27:07.039Z,2.90
2018-08-18T16:29:35.787Z,2.30
2018-08-18T16:32:15.083Z,2.90
2018-08-18T16:34:45.143Z,2.40
2018-08-18T16:37:19.802Z,2.85
2018-08-18T16:39:48.083Z,2.90
2018-08-18T16:42:16.356Z,3.42
2018-08-18T16:44:44.793Z,2.72
2018-08-18T16:47:13.090Z,2.85
2018-08-18T16:49:41.422Z,2.60
2018-08-18T16:52:09.769Z,2.30
2018-08-18T16:54:38.223Z,3.27
2018-08-18T16:57:06.601Z,2.35
2018-08-18T16:59:35.636Z,2.15
2018-08-18T17:02:04.933Z,2.27
2018-08-18T17:04:34.529Z,2.70
2018-08-18T17:07:10.101Z,3.20
2018-08-18T17:09:41.501Z,2.83
2018-08-18T17:12:17.595Z,5.95
2018-08-18T17:14:46.350Z,2.90
2018-08-18T17:17:14.874Z,3.22
2018-08-18T17:19:43.590Z,3.20
2018-08-18T17:22:14.150Z,3.62
2018-08-18T17:24:43.041Z,3.05
2018-08-18T17:27:11.341Z,3.12
2018-08-18T17:29:41.821Z,3.17
2018-08-18T17:32:10.481Z,3.52
2018-08-18T17:34:38.800Z,3.62
2018-08-18T17:37:07.410Z,3.00
2018-08-18T17:39:35.888Z,3.45
2018-08-18T17:42:04.190Z,3.50
2018-08-18T17:44:32.521Z,4.58
2018-08-18T17:47:07.738Z,3.83
2018-08-18T17:49:48.011Z,3.30
2018-08-18T17:52:16.333Z,3.20
2018-08-18T17:54:59.202Z,3.00
2018-08-18T17:57:27.799Z,3.30
2018-08-18T18:00:06.501Z,3.30
2018-08-18T18:05:16.804Z,3.55
2018-08-18T18:07:45.308Z,3.22
2018-08-18T18:10:14.018Z,2.87
2018-08-18T18:12:42.747Z,2.80
2018-08-18T18:15:22.682Z,3.80
2018-08-18T18:17:52.804Z,3.37
2018-08-18T18:20:21.530Z,5.50
2018-08-18T18:22:50.352Z,7.78
2018-08-18T18:25:19.439Z,4.33
2018-08-18T18:27:47.866Z,3.95
2018-08-18T18:30:16.154Z,4.72
2018-08-18T18:32:44.706Z,4.28
2018-08-18T18:35:13.012Z,3.92
2018-08-18T18:37:41.299Z,4.30
2018-08-18T18:40:11.130Z,4.62
2018-08-18T18:42:39.387Z,4.95
2018-08-18T18:45:09.121Z,3.70
2018-08-18T18:47:37.453Z,5.53
2018-08-18T18:50:06.517Z,4.45
2018-08-18T18:52:35.535Z,4.67
2018-08-18T18:55:04.157Z,8.00
2018-08-18T18:57:32.784Z,4.47
2018-08-18T19:00:01.369Z,4.28
2018-08-18T19:02:37.927Z,3.90
2018-08-18T19:05:18.225Z,5.10
2018-08-18T19:07:48.805Z,4.67
2018-08-18T19:10:17.621Z,4.70
2018-08-18T19:12:46.170Z,3.65
2018-08-18T19:15:14.663Z,5.58
2018-08-18T19:17:43.464Z,4.45
2018-08-18T19:20:20.665Z,5.00
2018-08-18T19:22:49.266Z,5.05
2018-08-18T19:25:17.623Z,21.50
2018-08-18T19:27:45.873Z,25.00
2018-08-18T19:30:14.223Z,27.52
2018-08-18T19:32:42.823Z,7.80
2018-08-18T19:35:11.058Z,10.43
2018-08-18T19:37:45.011Z,5.10
2018-08-18T19:40:13.254Z,6.80
2018-08-18T19:42:41.514Z,5.25
2018-08-18T19:45:09.850Z,4.70
2018-08-18T19:47:38.617Z,5.20
2018-08-18T19:50:07.778Z,5.30
2018-08-18T19:52:36.049Z,4.80
2018-08-18T19:55:04.682Z,4.70
2018-08-18T19:57:37.693Z,4.42
2018-08-18T20:00:17.523Z,4.90
2018-08-18T20:03:01.346Z,4.35
2018-08-18T20:05:30.314Z,4.53
2018-08-18T20:07:58.613Z,4.97
2018-08-18T20:10:27.157Z,5.20
2018-08-18T20:12:55.454Z,4.95
2018-08-18T20:15:24.063Z,5.30
2018-08-18T20:17:52.517Z,7.28
2018-08-18T20:20:22.577Z,5.87
2018-08-18T20:22:51.165Z,5.70
2018-08-18T20:25:19.617Z,5.12
2018-08-18T20:27:47.888Z,6.03
2018-08-18T20:30:16.496Z,6.33
2018-08-18T20:32:45.592Z,5.92
2018-08-18T20:35:13.869Z,5.42
2018-08-18T20:37:46.568Z,5.78
2018-08-18T20:40:14.880Z,5.30
2018-08-18T20:42:45.711Z,5.85
2018-08-18T20:45:14.101Z,7.08
2018-08-18T20:47:43.466Z,5.72
2018-08-18T20:50:12.313Z,4.95
2018-08-18T20:52:46.625Z,5.75
2018-08-18T20:55:15.621Z,5.83
2018-08-18T20:57:43.877Z,6.00
2018-08-18T21:00:12.516Z,5.75
2018-08-18T21:02:41.040Z,6.30
2018-08-18T21:05:10.185Z,6.28
2018-08-18T21:07:38.439Z,5.67
2018-08-18T21:10:09.760Z,6.00
2018-08-18T21:12:42.274Z,6.00
2018-08-18T21:15:11.552Z,6.05
2018-08-18T21:17:40.128Z,6.45
2018-08-18T21:20:10.577Z,6.00
2018-08-18T21:22:39.060Z,6.15
2018-08-18T21:25:08.298Z,5.75
2018-08-18T21:27:37.261Z,6.20
2018-08-18T21:30:09.124Z,6.50
2018-08-18T21:32:37.799Z,6.08
2018-08-18T21:35:06.689Z,5.87
2018-08-18T21:37:35.001Z,5.90
2018-08-18T21:40:03.311Z,6.80
2018-08-18T21:42:31.584Z,5.33
2018-08-18T21:44:59.950Z,5.85
2018-08-18T21:47:28.622Z,6.10
2018-08-18T21:49:56.913Z,6.00
2018-08-18T21:52:25.485Z,5.17
2018-08-18T21:54:54.139Z,5.90
2018-08-18T21:57:22.389Z,6.50
2018-08-18T21:59:53.841Z,6.45
2018-08-18T22:02:35.102Z,6.03
2018-08-18T22:05:03.915Z,6.17
2018-08-18T22:07:37.206Z,6.33
2018-08-18T22:10:06.865Z,6.37
2018-08-18T22:12:35.141Z,6.67
2018-08-18T22:15:09.390Z,5.85
2018-08-18T22:17:38.173Z,6.28
2018-08-18T22:20:07.039Z,6.28
2018-08-18T22:22:35.747Z,6.60
2018-08-18T22:25:04.095Z,6.92
2018-08-18T22:27:34.226Z,6.40
2018-08-18T22:30:02.529Z,6.15
2018-08-18T22:32:31.130Z,6.12
2018-08-18T22:34:59.440Z,7.53
2018-08-18T22:37:27.754Z,6.00
2018-08-18T22:39:56.166Z,6.17
2018-08-18T22:42:24.449Z,5.92
2018-08-18T22:44:52.822Z,6.17
2018-08-18T22:47:21.631Z,6.30
2018-08-18T22:49:51.796Z,6.03
2018-08-18T22:52:20.106Z,6.70
2018-08-18T22:54:48.690Z,6.55
2018-08-18T22:57:17.053Z,6.47
2018-08-18T22:59:45.721Z,6.70
2018-08-18T23:02:14.054Z,6.90
2018-08-18T23:04:43.102Z,6.83
2018-08-18T23:07:11.404Z,7.17
2018-08-18T23:09:39.770Z,7.12
2018-08-18T23:12:08.326Z,7.45
2018-08-18T23:14:38.000Z,7.37
2018-08-18T23:18:31.203Z,6.62
2018-08-18T23:21:00.172Z,6.83
2018-08-18T23:23:28.497Z,7.08
2018-08-18T23:25:56.811Z,6.50
2018-08-18T23:28:25.110Z,7.05
2018-08-18T23:30:53.758Z,6.37
2018-08-18T23:33:22.051Z,6.12
2018-08-18T23:35:50.375Z,7.37
2018-08-18T23:38:19.094Z,6.78
2018-08-18T23:40:47.476Z,6.20
2018-08-18T23:43:15.831Z,7.42
2018-08-18T23:45:49.316Z,8.35
2018-08-18T23:48:17.604Z,7.37
2018-08-18T23:50:45.868Z,7.80
2018-08-18T23:53:16.032Z,7.60
2018-08-18T23:55:54.976Z,7.05
2018-08-18T23:58:23.315Z,7.72
